sensor_id;sensor_type;location;lat;lon;timestamp;P1;durP1;ratioP1;P2;durP2;ratioP2
33138;SDS011;19501;50.948;5.316;2023-11-18T00:00:49;41.75;;;20.17;;
33138;SDS011;19501;50.948;5.316;2023-11-18T00:03:15;41.95;;;21.15;;
33138;SDS011;19501;50.948;5.316;2023-11-18T00:05:41;40.85;;;19.98;;
33138;SDS011;19501;50.948;5.316;2023-11-18T00:08:07;38.53;;;19.88;;
33138;SDS011;19501;50.948;5.316;2023-11-18T00:10:33;39.20;;;20.38;;
33138;SDS011;19501;50.948;5.316;2023-11-18T00:12:58;39.45;;;20.00;;
33138;SDS011;19501;50.948;5.316;2023-11-18T00:15:26;41.88;;;19.38;;
33138;SDS011;19501;50.948;5.316;2023-11-18T00:17:52;39.85;;;19.15;;
33138;SDS011;19501;50.948;5.316;2023-11-18T00:20:17;37.80;;;20.83;;
33138;SDS011;19501;50.948;5.316;2023-11-18T00:22:44;41.90;;;20.38;;
33138;SDS011;19501;50.948;5.316;2023-11-18T00:25:10;52.00;;;22.05;;
33138;SDS011;19501;50.948;5.316;2023-11-18T00:27:36;45.88;;;21.95;;
33138;SDS011;19501;50.948;5.316;2023-11-18T00:30:02;41.17;;;21.83;;
33138;SDS011;19501;50.948;5.316;2023-11-18T00:32:38;44.00;;;20.88;;
33138;SDS011;19501;50.948;5.316;2023-11-18T00:35:04;42.85;;;20.92;;
33138;SDS011;19501;50.948;5.316;2023-11-18T00:37:35;39.47;;;20.83;;
33138;SDS011;19501;50.948;5.316;2023-11-18T00:40:00;41.67;;;21.02;;
33138;SDS011;19501;50.948;5.316;2023-11-18T00:42:26;43.00;;;20.60;;
33138;SDS011;19501;50.948;5.316;2023-11-18T00:44:52;41.63;;;22.35;;
33138;SDS011;19501;50.948;5.316;2023-11-18T00:47:20;42.28;;;21.00;;
33138;SDS011;19501;50.948;5.316;2023-11-18T00:49:48;44.35;;;22.27;;
33138;SDS011;19501;50.948;5.316;2023-11-18T00:52:14;42.22;;;21.60;;
33138;SDS011;19501;50.948;5.316;2023-11-18T00:54:40;43.30;;;21.30;;
33138;SDS011;19501;50.948;5.316;2023-11-18T00:57:05;41.15;;;20.95;;
33138;SDS011;19501;50.948;5.316;2023-11-18T00:59:32;45.30;;;22.75;;
33138;SDS011;19501;50.948;5.316;2023-11-18T01:01:58;39.85;;;21.20;;
33138;SDS011;19501;50.948;5.316;2023-11-18T01:04:23;43.92;;;22.00;;
33138;SDS011;19501;50.948;5.316;2023-11-18T01:06:50;37.28;;;20.17;;
33138;SDS011;19501;50.948;5.316;2023-11-18T01:09:16;41.42;;;21.25;;
33138;SDS011;19501;50.948;5.316;2023-11-18T01:11:42;42.63;;;22.02;;
33138;SDS011;19501;50.948;5.316;2023-11-18T01:14:08;43.83;;;20.58;;
33138;SDS011;19501;50.948;5.316;2023-11-18T01:16:33;37.50;;;20.58;;
33138;SDS011;19501;50.948;5.316;2023-11-18T01:18:59;40.10;;;19.48;;
33138;SDS011;19501;50.948;5.316;2023-11-18T01:21:25;35.22;;;18.85;;
33138;SDS011;19501;50.948;5.316;2023-11-18T01:23:50;38.58;;;20.88;;
33138;SDS011;19501;50.948;5.316;2023-11-18T01:26:16;38.65;;;20.50;;
33138;SDS011;19501;50.948;5.316;2023-11-18T01:28:42;40.38;;;20.33;;
33138;SDS011;19501;50.948;5.316;2023-11-18T01:31:08;38.08;;;20.05;;
33138;SDS011;19501;50.948;5.316;2023-11-18T01:33:44;40.35;;;20.70;;
33138;SDS011;19501;50.948;5.316;2023-11-18T01:36:10;39.88;;;20.77;;
33138;SDS011;19501;50.948;5.316;2023-11-18T01:38:37;42.25;;;20.80;;
33138;SDS011;19501;50.948;5.316;2023-11-18T01:41:06;38.20;;;20.58;;
33138;SDS011;19501;50.948;5.316;2023-11-18T01:43:37;40.97;;;20.08;;
33138;SDS011;19501;50.948;5.316;2023-11-18T01:46:05;43.85;;;20.50;;
33138;SDS011;19501;50.948;5.316;2023-11-18T01:48:35;39.88;;;20.73;;
33138;SDS011;19501;50.948;5.316;2023-11-18T01:51:03;35.70;;;19.65;;
33138;SDS011;19501;50.948;5.316;2023-11-18T01:53:31;33.13;;;18.20;;
33138;SDS011;19501;50.948;5.316;2023-11-18T01:56:00;37.70;;;19.30;;
33138;SDS011;19501;50.948;5.316;2023-11-18T01:58:27;38.72;;;19.85;;
33138;SDS011;19501;50.948;5.316;2023-11-18T02:00:56;36.92;;;18.80;;
33138;SDS011;19501;50.948;5.316;2023-11-18T02:03:22;35.67;;;18.35;;
33138;SDS011;19501;50.948;5.316;2023-11-18T02:05:48;42.42;;;19.27;;
33138;SDS011;19501;50.948;5.316;2023-11-18T02:08:14;38.90;;;18.85;;
33138;SDS011;19501;50.948;5.316;2023-11-18T02:10:45;37.33;;;19.33;;
33138;SDS011;19501;50.948;5.316;2023-11-18T02:13:21;33.47;;;18.55;;
33138;SDS011;19501;50.948;5.316;2023-11-18T02:15:55;37.88;;;17.15;;
33138;SDS011;19501;50.948;5.316;2023-11-18T02:18:22;37.10;;;18.83;;
33138;SDS011;19501;50.948;5.316;2023-11-18T02:20:57;41.90;;;20.23;;
33138;SDS011;19501;50.948;5.316;2023-11-18T02:23:24;37.47;;;19.45;;
33138;SDS011;19501;50.948;5.316;2023-11-18T02:25:53;38.22;;;18.80;;
33138;SDS011;19501;50.948;5.316;2023-11-18T02:28:20;39.05;;;18.77;;
33138;SDS011;19501;50.948;5.316;2023-11-18T02:30:47;38.92;;;19.20;;
33138;SDS011;19501;50.948;5.316;2023-11-18T02:36:01;37.05;;;18.25;;
33138;SDS011;19501;50.948;5.316;2023-11-18T02:38:35;35.95;;;17.77;;
33138;SDS011;19501;50.948;5.316;2023-11-18T02:41:06;39.67;;;17.57;;
33138;SDS011;19501;50.948;5.316;2023-11-18T02:43:35;34.15;;;17.33;;
33138;SDS011;19501;50.948;5.316;2023-11-18T02:46:03;35.00;;;17.65;;
33138;SDS011;19501;50.948;5.316;2023-11-18T02:48:30;43.72;;;17.67;;
33138;SDS011;19501;50.948;5.316;2023-11-18T02:50:57;37.03;;;17.27;;
33138;SDS011;19501;50.948;5.316;2023-11-18T02:53:26;37.17;;;17.60;;
33138;SDS011;19501;50.948;5.316;2023-11-18T02:55:52;33.72;;;17.50;;
33138;SDS011;19501;50.948;5.316;2023-11-18T02:58:19;33.00;;;16.02;;
33138;SDS011;19501;50.948;5.316;2023-11-18T03:00:45;38.03;;;16.67;;
33138;SDS011;19501;50.948;5.316;2023-11-18T03:03:11;33.47;;;16.33;;
33138;SDS011;19501;50.948;5.316;2023-11-18T03:05:37;36.58;;;16.05;;
33138;SDS011;19501;50.948;5.316;2023-11-18T03:08:03;32.42;;;15.88;;
33138;SDS011;19501;50.948;5.316;2023-11-18T03:10:34;34.80;;;16.35;;
33138;SDS011;19501;50.948;5.316;2023-11-18T03:13:00;32.45;;;15.25;;
33138;SDS011;19501;50.948;5.316;2023-11-18T03:15:26;28.83;;;14.48;;
33138;SDS011;19501;50.948;5.316;2023-11-18T03:17:52;29.65;;;15.05;;
33138;SDS011;19501;50.948;5.316;2023-11-18T03:20:20;32.55;;;15.00;;
33138;SDS011;19501;50.948;5.316;2023-11-18T03:22:48;29.50;;;14.50;;
33138;SDS011;19501;50.948;5.316;2023-11-18T03:25:15;29.45;;;14.00;;
33138;SDS011;19501;50.948;5.316;2023-11-18T03:27:41;31.73;;;14.40;;
33138;SDS011;19501;50.948;5.316;2023-11-18T03:30:08;33.25;;;14.23;;
33138;SDS011;19501;50.948;5.316;2023-11-18T03:32:38;31.45;;;12.20;;
33138;SDS011;19501;50.948;5.316;2023-11-18T03:35:10;32.67;;;13.63;;
33138;SDS011;19501;50.948;5.316;2023-11-18T03:37:36;31.05;;;13.05;;
33138;SDS011;19501;50.948;5.316;2023-11-18T03:40:05;29.38;;;12.27;;
33138;SDS011;19501;50.948;5.316;2023-11-18T03:42:34;31.80;;;12.93;;
33138;SDS011;19501;50.948;5.316;2023-11-18T03:45:00;34.28;;;12.13;;
33138;SDS011;19501;50.948;5.316;2023-11-18T03:47:26;24.77;;;11.75;;
33138;SDS011;19501;50.948;5.316;2023-11-18T03:49:52;28.65;;;12.35;;
33138;SDS011;19501;50.948;5.316;2023-11-18T03:52:19;31.27;;;11.80;;
33138;SDS011;19501;50.948;5.316;2023-11-18T03:54:45;25.88;;;10.85;;
33138;SDS011;19501;50.948;5.316;2023-11-18T03:57:10;30.00;;;11.57;;
33138;SDS011;19501;50.948;5.316;2023-11-18T03:59:36;30.20;;;11.65;;
33138;SDS011;19501;50.948;5.316;2023-11-18T04:02:03;26.27;;;11.07;;
33138;SDS011;19501;50.948;5.316;2023-11-18T04:04:29;26.58;;;11.02;;
33138;SDS011;19501;50.948;5.316;2023-11-18T04:06:55;26.05;;;10.98;;
33138;SDS011;19501;50.948;5.316;2023-11-18T04:09:21;27.70;;;10.90;;
33138;SDS011;19501;50.948;5.316;2023-11-18T04:11:46;31.67;;;10.50;;
33138;SDS011;19501;50.948;5.316;2023-11-18T04:14:12;24.65;;;10.38;;
33138;SDS011;19501;50.948;5.316;2023-11-18T04:16:37;28.95;;;11.35;;
33138;SDS011;19501;50.948;5.316;2023-11-18T04:19:03;22.55;;;10.10;;
33138;SDS011;19501;50.948;5.316;2023-11-18T04:21:30;23.25;;;9.68;;
33138;SDS011;19501;50.948;5.316;2023-11-18T04:23:56;22.42;;;9.73;;
33138;SDS011;19501;50.948;5.316;2023-11-18T04:26:21;27.08;;;9.40;;
33138;SDS011;19501;50.948;5.316;2023-11-18T04:28:47;23.35;;;9.82;;
33138;SDS011;19501;50.948;5.316;2023-11-18T04:31:12;20.48;;;8.90;;
33138;SDS011;19501;50.948;5.316;2023-11-18T04:33:39;24.33;;;9.27;;
33138;SDS011;19501;50.948;5.316;2023-11-18T04:36:05;26.65;;;10.13;;
33138;SDS011;19501;50.948;5.316;2023-11-18T04:38:35;25.85;;;9.57;;
33138;SDS011;19501;50.948;5.316;2023-11-18T04:41:03;21.63;;;8.70;;
33138;SDS011;19501;50.948;5.316;2023-11-18T04:43:29;23.08;;;9.05;;
33138;SDS011;19501;50.948;5.316;2023-11-18T04:45:55;22.52;;;8.35;;
33138;SDS011;19501;50.948;5.316;2023-11-18T04:48:21;23.77;;;9.10;;
33138;SDS011;19501;50.948;5.316;2023-11-18T04:50:47;22.15;;;8.20;;
33138;SDS011;19501;50.948;5.316;2023-11-18T04:53:12;22.00;;;8.35;;
33138;SDS011;19501;50.948;5.316;2023-11-18T04:55:38;21.80;;;8.48;;
33138;SDS011;19501;50.948;5.316;2023-11-18T04:58:06;24.20;;;7.30;;
33138;SDS011;19501;50.948;5.316;2023-11-18T05:00:34;21.63;;;9.05;;
33138;SDS011;19501;50.948;5.316;2023-11-18T05:03:03;19.65;;;8.25;;
33138;SDS011;19501;50.948;5.316;2023-11-18T05:05:31;19.35;;;7.35;;
33138;SDS011;19501;50.948;5.316;2023-11-18T05:07:56;19.77;;;7.65;;
33138;SDS011;19501;50.948;5.316;2023-11-18T05:10:22;20.60;;;7.55;;
33138;SDS011;19501;50.948;5.316;2023-11-18T05:12:48;25.05;;;7.75;;
33138;SDS011;19501;50.948;5.316;2023-11-18T05:15:20;19.43;;;6.63;;
33138;SDS011;19501;50.948;5.316;2023-11-18T05:17:49;16.52;;;6.22;;
33138;SDS011;19501;50.948;5.316;2023-11-18T05:20:18;18.02;;;7.47;;
33138;SDS011;19501;50.948;5.316;2023-11-18T05:22:45;19.40;;;6.32;;
33138;SDS011;19501;50.948;5.316;2023-11-18T05:25:11;23.75;;;7.30;;
33138;SDS011;19501;50.948;5.316;2023-11-18T05:27:37;23.10;;;7.20;;
33138;SDS011;19501;50.948;5.316;2023-11-18T05:30:05;19.13;;;6.13;;
33138;SDS011;19501;50.948;5.316;2023-11-18T05:32:32;20.92;;;5.57;;
33138;SDS011;19501;50.948;5.316;2023-11-18T05:34:58;19.73;;;6.35;;
33138;SDS011;19501;50.948;5.316;2023-11-18T05:37:24;16.02;;;6.18;;
33138;SDS011;19501;50.948;5.316;2023-11-18T05:39:50;23.42;;;6.35;;
33138;SDS011;19501;50.948;5.316;2023-11-18T05:42:24;19.88;;;6.18;;
33138;SDS011;19501;50.948;5.316;2023-11-18T05:44:52;17.20;;;5.80;;
33138;SDS011;19501;50.948;5.316;2023-11-18T05:47:24;21.30;;;5.60;;
33138;SDS011;19501;50.948;5.316;2023-11-18T05:49:53;20.77;;;6.03;;
33138;SDS011;19501;50.948;5.316;2023-11-18T05:52:20;17.50;;;5.85;;
33138;SDS011;19501;50.948;5.316;2023-11-18T05:54:48;18.27;;;6.05;;
33138;SDS011;19501;50.948;5.316;2023-11-18T05:57:17;20.73;;;5.65;;
33138;SDS011;19501;50.948;5.316;2023-11-18T05:59:46;22.48;;;6.07;;
33138;SDS011;19501;50.948;5.316;2023-11-18T06:02:13;18.63;;;5.82;;
33138;SDS011;19501;50.948;5.316;2023-11-18T06:04:46;20.60;;;5.70;;
33138;SDS011;19501;50.948;5.316;2023-11-18T06:07:12;20.77;;;5.65;;
33138;SDS011;19501;50.948;5.316;2023-11-18T06:09:38;16.55;;;5.72;;
33138;SDS011;19501;50.948;5.316;2023-11-18T06:12:09;19.42;;;5.95;;
33138;SDS011;19501;50.948;5.316;2023-11-18T06:14:35;17.13;;;5.55;;
33138;SDS011;19501;50.948;5.316;2023-11-18T06:17:02;19.10;;;6.07;;
33138;SDS011;19501;50.948;5.316;2023-11-18T06:19:28;19.23;;;5.78;;
33138;SDS011;19501;50.948;5.316;2023-11-18T06:21:53;15.63;;;5.50;;
33138;SDS011;19501;50.948;5.316;2023-11-18T06:24:19;20.33;;;5.97;;
33138;SDS011;19501;50.948;5.316;2023-11-18T06:26:46;16.85;;;5.13;;
33138;SDS011;19501;50.948;5.316;2023-11-18T06:29:14;20.23;;;5.55;;
33138;SDS011;19501;50.948;5.316;2023-11-18T06:31:40;14.48;;;5.55;;
33138;SDS011;19501;50.948;5.316;2023-11-18T06:34:07;18.17;;;6.30;;
33138;SDS011;19501;50.948;5.316;2023-11-18T06:36:32;17.42;;;6.15;;
33138;SDS011;19501;50.948;5.316;2023-11-18T06:38:58;19.10;;;6.07;;
33138;SDS011;19501;50.948;5.316;2023-11-18T06:41:24;19.35;;;5.63;;
33138;SDS011;19501;50.948;5.316;2023-11-18T06:43:58;17.25;;;5.65;;
33138;SDS011;19501;50.948;5.316;2023-11-18T06:46:28;22.23;;;6.90;;
33138;SDS011;19501;50.948;5.316;2023-11-18T06:48:58;18.92;;;5.50;;
33138;SDS011;19501;50.948;5.316;2023-11-18T06:51:28;15.10;;;5.35;;
33138;SDS011;19501;50.948;5.316;2023-11-18T06:53:59;18.27;;;5.80;;
33138;SDS011;19501;50.948;5.316;2023-11-18T06:56:27;18.92;;;5.45;;
33138;SDS011;19501;50.948;5.316;2023-11-18T06:58:53;15.50;;;5.15;;
33138;SDS011;19501;50.948;5.316;2023-11-18T07:01:19;20.85;;;5.88;;
33138;SDS011;19501;50.948;5.316;2023-11-18T07:03:46;23.73;;;5.38;;
33138;SDS011;19501;50.948;5.316;2023-11-18T07:06:19;18.75;;;5.85;;
33138;SDS011;19501;50.948;5.316;2023-11-18T07:08:54;21.40;;;5.68;;
33138;SDS011;19501;50.948;5.316;2023-11-18T07:11:25;17.80;;;5.53;;
33138;SDS011;19501;50.948;5.316;2023-11-18T07:13:51;19.05;;;5.22;;
33138;SDS011;19501;50.948;5.316;2023-11-18T07:16:24;17.25;;;5.72;;
33138;SDS011;19501;50.948;5.316;2023-11-18T07:18:50;15.95;;;5.50;;
33138;SDS011;19501;50.948;5.316;2023-11-18T07:21:16;18.45;;;5.78;;
33138;SDS011;19501;50.948;5.316;2023-11-18T07:23:42;18.33;;;5.28;;
33138;SDS011;19501;50.948;5.316;2023-11-18T07:26:08;15.73;;;5.80;;
33138;SDS011;19501;50.948;5.316;2023-11-18T07:28:38;19.90;;;5.50;;
33138;SDS011;19501;50.948;5.316;2023-11-18T07:31:04;18.25;;;5.13;;
33138;SDS011;19501;50.948;5.316;2023-11-18T07:33:30;23.77;;;5.85;;
33138;SDS011;19501;50.948;5.316;2023-11-18T07:35:57;19.33;;;5.28;;
33138;SDS011;19501;50.948;5.316;2023-11-18T07:38:23;23.10;;;5.68;;
33138;SDS011;19501;50.948;5.316;2023-11-18T07:40:54;16.88;;;5.47;;
33138;SDS011;19501;50.948;5.316;2023-11-18T07:43:21;20.05;;;5.10;;
33138;SDS011;19501;50.948;5.316;2023-11-18T07:45:48;16.38;;;4.82;;
33138;SDS011;19501;50.948;5.316;2023-11-18T07:48:20;20.67;;;6.47;;
33138;SDS011;19501;50.948;5.316;2023-11-18T07:50:46;16.75;;;5.18;;
33138;SDS011;19501;50.948;5.316;2023-11-18T07:53:14;15.93;;;5.30;;
33138;SDS011;19501;50.948;5.316;2023-11-18T07:55:41;17.70;;;5.60;;
33138;SDS011;19501;50.948;5.316;2023-11-18T07:58:07;17.23;;;4.90;;
33138;SDS011;19501;50.948;5.316;2023-11-18T08:00:36;20.98;;;5.70;;
33138;SDS011;19501;50.948;5.316;2023-11-18T08:03:06;19.58;;;5.50;;
33138;SDS011;19501;50.948;5.316;2023-11-18T08:05:36;17.00;;;5.70;;
33138;SDS011;19501;50.948;5.316;2023-11-18T08:08:04;18.58;;;5.32;;
33138;SDS011;19501;50.948;5.316;2023-11-18T08:10:33;19.48;;;5.47;;
33138;SDS011;19501;50.948;5.316;2023-11-18T08:13:03;18.00;;;5.90;;
33138;SDS011;19501;50.948;5.316;2023-11-18T08:15:31;20.48;;;5.55;;
33138;SDS011;19501;50.948;5.316;2023-11-18T08:17:57;20.50;;;6.28;;
33138;SDS011;19501;50.948;5.316;2023-11-18T08:20:23;18.35;;;5.78;;
33138;SDS011;19501;50.948;5.316;2023-11-18T08:22:50;19.98;;;5.72;;
33138;SDS011;19501;50.948;5.316;2023-11-18T08:25:16;19.60;;;6.32;;
33138;SDS011;19501;50.948;5.316;2023-11-18T08:27:43;24.00;;;6.43;;
33138;SDS011;19501;50.948;5.316;2023-11-18T08:30:11;19.52;;;6.70;;
33138;SDS011;19501;50.948;5.316;2023-11-18T08:32:37;25.00;;;6.70;;
33138;SDS011;19501;50.948;5.316;2023-11-18T08:35:06;20.17;;;6.35;;
33138;SDS011;19501;50.948;5.316;2023-11-18T08:37:33;22.52;;;6.65;;
33138;SDS011;19501;50.948;5.316;2023-11-18T08:40:01;20.63;;;7.28;;
33138;SDS011;19501;50.948;5.316;2023-11-18T08:42:41;17.58;;;6.25;;
33138;SDS011;19501;50.948;5.316;2023-11-18T08:45:12;21.20;;;7.65;;
33138;SDS011;19501;50.948;5.316;2023-11-18T08:47:48;20.67;;;6.13;;
33138;SDS011;19501;50.948;5.316;2023-11-18T08:50:17;21.42;;;7.30;;
33138;SDS011;19501;50.948;5.316;2023-11-18T08:52:43;22.98;;;6.65;;
33138;SDS011;19501;50.948;5.316;2023-11-18T08:55:12;23.80;;;6.75;;
33138;SDS011;19501;50.948;5.316;2023-11-18T08:57:44;19.48;;;7.10;;
33138;SDS011;19501;50.948;5.316;2023-11-18T09:00:29;20.13;;;7.13;;
33138;SDS011;19501;50.948;5.316;2023-11-18T09:03:14;19.52;;;6.70;;
33138;SDS011;19501;50.948;5.316;2023-11-18T09:05:50;23.50;;;6.75;;
33138;SDS011;19501;50.948;5.316;2023-11-18T09:08:25;24.00;;;7.40;;
33138;SDS011;19501;50.948;5.316;2023-11-18T09:11:00;20.27;;;6.70;;
33138;SDS011;19501;50.948;5.316;2023-11-18T09:13:33;23.67;;;7.25;;
33138;SDS011;19501;50.948;5.316;2023-11-18T09:16:05;22.67;;;6.78;;
33138;SDS011;19501;50.948;5.316;2023-11-18T09:18:35;27.75;;;7.25;;
33138;SDS011;19501;50.948;5.316;2023-11-18T09:21:01;21.25;;;6.75;;
33138;SDS011;19501;50.948;5.316;2023-11-18T09:23:29;20.77;;;7.30;;
33138;SDS011;19501;50.948;5.316;2023-11-18T09:25:57;22.65;;;6.70;;
33138;SDS011;19501;50.948;5.316;2023-11-18T09:28:23;23.42;;;7.35;;
33138;SDS011;19501;50.948;5.316;2023-11-18T09:30:49;25.40;;;7.25;;
33138;SDS011;19501;50.948;5.316;2023-11-18T09:33:19;23.58;;;7.03;;
33138;SDS011;19501;50.948;5.316;2023-11-18T09:35:57;24.35;;;6.82;;
33138;SDS011;19501;50.948;5.316;2023-11-18T09:38:30;23.15;;;7.00;;
33138;SDS011;19501;50.948;5.316;2023-11-18T09:40:58;20.00;;;6.47;;
33138;SDS011;19501;50.948;5.316;2023-11-18T09:43:32;24.60;;;6.88;;
33138;SDS011;19501;50.948;5.316;2023-11-18T09:46:07;23.50;;;7.05;;
33138;SDS011;19501;50.948;5.316;2023-11-18T09:51:58;25.50;;;6.78;;
33138;SDS011;19501;50.948;5.316;2023-11-18T09:54:43;21.73;;;7.57;;
33138;SDS011;19501;50.948;5.316;2023-11-18T09:57:32;20.35;;;5.70;;
33138;SDS011;19501;50.948;5.316;2023-11-18T10:00:05;19.05;;;6.07;;
33138;SDS011;19501;50.948;5.316;2023-11-18T10:02:51;22.73;;;6.50;;
33138;SDS011;19501;50.948;5.316;2023-11-18T10:05:17;21.80;;;6.95;;
33138;SDS011;19501;50.948;5.316;2023-11-18T10:07:48;47.95;;;8.45;;
33138;SDS011;19501;50.948;5.316;2023-11-18T10:10:14;20.15;;;6.38;;
33138;SDS011;19501;50.948;5.316;2023-11-18T10:12:46;18.70;;;6.32;;
33138;SDS011;19501;50.948;5.316;2023-11-18T10:15:23;23.10;;;6.95;;
33138;SDS011;19501;50.948;5.316;2023-11-18T10:17:50;23.80;;;6.78;;
33138;SDS011;19501;50.948;5.316;2023-11-18T10:23:06;20.85;;;5.90;;
33138;SDS011;19501;50.948;5.316;2023-11-18T10:25:37;22.23;;;6.03;;
33138;SDS011;19501;50.948;5.316;2023-11-18T10:28:25;20.98;;;6.43;;
33138;SDS011;19501;50.948;5.316;2023-11-18T10:30:57;18.17;;;5.70;;
33138;SDS011;19501;50.948;5.316;2023-11-18T10:33:39;20.25;;;6.47;;
33138;SDS011;19501;50.948;5.316;2023-11-18T10:36:16;20.83;;;6.55;;
33138;SDS011;19501;50.948;5.316;2023-11-18T10:38:47;18.15;;;5.75;;
33138;SDS011;19501;50.948;5.316;2023-11-18T10:41:15;20.38;;;5.88;;
33138;SDS011;19501;50.948;5.316;2023-11-18T10:43:44;20.90;;;5.72;;
33138;SDS011;19501;50.948;5.316;2023-11-18T10:46:13;17.95;;;5.35;;
33138;SDS011;19501;50.948;5.316;2023-11-18T10:48:44;18.92;;;5.75;;
33138;SDS011;19501;50.948;5.316;2023-11-18T10:51:15;17.40;;;5.15;;
33138;SDS011;19501;50.948;5.316;2023-11-18T10:53:48;15.48;;;5.07;;
33138;SDS011;19501;50.948;5.316;2023-11-18T10:56:23;17.77;;;5.75;;
33138;SDS011;19501;50.948;5.316;2023-11-18T10:59:04;16.90;;;5.45;;
33138;SDS011;19501;50.948;5.316;2023-11-18T11:01:32;19.90;;;5.50;;
33138;SDS011;19501;50.948;5.316;2023-11-18T11:03:59;20.10;;;5.95;;
33138;SDS011;19501;50.948;5.316;2023-11-18T11:06:29;22.88;;;5.88;;
33138;SDS011;19501;50.948;5.316;2023-11-18T11:08:57;23.67;;;5.70;;
33138;SDS011;19501;50.948;5.316;2023-11-18T11:11:27;23.48;;;7.15;;
33138;SDS011;19501;50.948;5.316;2023-11-18T11:14:02;21.30;;;5.57;;
33138;SDS011;19501;50.948;5.316;2023-11-18T11:16:50;20.92;;;6.07;;
33138;SDS011;19501;50.948;5.316;2023-11-18T11:19:33;23.23;;;5.45;;
33138;SDS011;19501;50.948;5.316;2023-11-18T11:22:09;21.63;;;5.88;;
33138;SDS011;19501;50.948;5.316;2023-11-18T11:27:33;17.48;;;5.90;;
33138;SDS011;19501;50.948;5.316;2023-11-18T11:30:23;16.13;;;5.72;;
33138;SDS011;19501;50.948;5.316;2023-11-18T11:35:33;16.35;;;5.10;;
33138;SDS011;19501;50.948;5.316;2023-11-18T11:38:05;16.83;;;5.07;;
33138;SDS011;19501;50.948;5.316;2023-11-18T11:40:35;19.80;;;5.15;;
33138;SDS011;19501;50.948;5.316;2023-11-18T11:43:03;19.65;;;5.45;;
33138;SDS011;19501;50.948;5.316;2023-11-18T11:45:34;16.88;;;4.80;;
33138;SDS011;19501;50.948;5.316;2023-11-18T11:48:01;14.63;;;4.90;;
33138;SDS011;19501;50.948;5.316;2023-11-18T11:53:39;13.68;;;4.72;;
33138;SDS011;19501;50.948;5.316;2023-11-18T11:56:10;18.73;;;5.20;;
33138;SDS011;19501;50.948;5.316;2023-11-18T11:58:40;17.92;;;5.55;;
33138;SDS011;19501;50.948;5.316;2023-11-18T12:01:23;16.75;;;5.28;;
33138;SDS011;19501;50.948;5.316;2023-11-18T12:04:02;17.90;;;6.57;;
33138;SDS011;19501;50.948;5.316;2023-11-18T12:06:32;11.63;;;4.45;;
33138;SDS011;19501;50.948;5.316;2023-11-18T12:09:00;16.40;;;4.95;;
33138;SDS011;19501;50.948;5.316;2023-11-18T12:11:32;18.00;;;4.90;;
33138;SDS011;19501;50.948;5.316;2023-11-18T12:14:05;12.02;;;4.30;;
33138;SDS011;19501;50.948;5.316;2023-11-18T12:19:28;13.55;;;4.28;;
33138;SDS011;19501;50.948;5.316;2023-11-18T12:22:02;12.85;;;4.57;;
33138;SDS011;19501;50.948;5.316;2023-11-18T12:24:38;13.20;;;4.43;;
33138;SDS011;19501;50.948;5.316;2023-11-18T12:27:07;11.07;;;3.72;;
33138;SDS011;19501;50.948;5.316;2023-11-18T12:29:47;9.52;;;3.90;;
33138;SDS011;19501;50.948;5.316;2023-11-18T12:32:32;14.13;;;4.05;;
33138;SDS011;19501;50.948;5.316;2023-11-18T12:35:20;8.90;;;3.63;;
33138;SDS011;19501;50.948;5.316;2023-11-18T12:40:55;8.43;;;3.17;;
33138;SDS011;19501;50.948;5.316;2023-11-18T12:46:33;7.95;;;3.15;;
33138;SDS011;19501;50.948;5.316;2023-11-18T12:49:15;11.55;;;3.58;;
33138;SDS011;19501;50.948;5.316;2023-11-18T12:51:51;10.40;;;3.22;;
33138;SDS011;19501;50.948;5.316;2023-11-18T12:54:18;8.05;;;3.03;;
33138;SDS011;19501;50.948;5.316;2023-11-18T12:56:45;8.75;;;3.00;;
33138;SDS011;19501;50.948;5.316;2023-11-18T12:59:17;8.57;;;3.40;;
33138;SDS011;19501;50.948;5.316;2023-11-18T13:01:43;8.80;;;3.20;;
33138;SDS011;19501;50.948;5.316;2023-11-18T13:04:16;7.82;;;2.58;;
33138;SDS011;19501;50.948;5.316;2023-11-18T13:06:44;6.05;;;2.80;;
33138;SDS011;19501;50.948;5.316;2023-11-18T13:09:11;7.68;;;2.95;;
33138;SDS011;19501;50.948;5.316;2023-11-18T13:11:50;6.38;;;2.70;;
33138;SDS011;19501;50.948;5.316;2023-11-18T13:14:23;6.82;;;2.63;;
33138;SDS011;19501;50.948;5.316;2023-11-18T13:16:51;4.95;;;2.25;;
33138;SDS011;19501;50.948;5.316;2023-11-18T13:19:23;6.97;;;2.50;;
33138;SDS011;19501;50.948;5.316;2023-11-18T13:21:51;8.07;;;2.67;;
33138;SDS011;19501;50.948;5.316;2023-11-18T13:24:17;7.43;;;2.80;;
33138;SDS011;19501;50.948;5.316;2023-11-18T13:26:42;5.43;;;2.40;;
33138;SDS011;19501;50.948;5.316;2023-11-18T13:29:08;4.88;;;1.80;;
33138;SDS011;19501;50.948;5.316;2023-11-18T13:31:34;3.55;;;2.13;;
33138;SDS011;19501;50.948;5.316;2023-11-18T13:34:01;4.57;;;2.10;;
33138;SDS011;19501;50.948;5.316;2023-11-18T13:36:29;4.38;;;2.28;;
33138;SDS011;19501;50.948;5.316;2023-11-18T13:38:56;6.63;;;2.58;;
33138;SDS011;19501;50.948;5.316;2023-11-18T13:41:30;6.97;;;2.28;;
33138;SDS011;19501;50.948;5.316;2023-11-18T13:43:56;6.88;;;2.60;;
33138;SDS011;19501;50.948;5.316;2023-11-18T13:46:23;4.90;;;2.38;;
33138;SDS011;19501;50.948;5.316;2023-11-18T13:48:49;5.53;;;2.22;;
33138;SDS011;19501;50.948;5.316;2023-11-18T13:51:16;3.92;;;1.60;;
33138;SDS011;19501;50.948;5.316;2023-11-18T13:53:44;4.85;;;1.90;;
33138;SDS011;19501;50.948;5.316;2023-11-18T13:56:11;5.60;;;1.90;;
33138;SDS011;19501;50.948;5.316;2023-11-18T13:58:37;3.88;;;2.08;;
33138;SDS011;19501;50.948;5.316;2023-11-18T14:01:07;4.72;;;1.67;;
33138;SDS011;19501;50.948;5.316;2023-11-18T14:03:36;4.43;;;2.30;;
33138;SDS011;19501;50.948;5.316;2023-11-18T14:06:03;4.18;;;1.60;;
33138;SDS011;19501;50.948;5.316;2023-11-18T14:08:31;2.63;;;1.65;;
33138;SDS011;19501;50.948;5.316;2023-11-18T14:10:58;4.70;;;1.75;;
33138;SDS011;19501;50.948;5.316;2023-11-18T14:13:23;2.50;;;1.55;;
33138;SDS011;19501;50.948;5.316;2023-11-18T14:15:49;3.85;;;2.00;;
33138;SDS011;19501;50.948;5.316;2023-11-18T14:18:20;2.88;;;1.70;;
33138;SDS011;19501;50.948;5.316;2023-11-18T14:20:46;10.18;;;1.88;;
33138;SDS011;19501;50.948;5.316;2023-11-18T14:23:13;2.63;;;1.55;;
33138;SDS011;19501;50.948;5.316;2023-11-18T14:25:39;7.45;;;1.75;;
33138;SDS011;19501;50.948;5.316;2023-11-18T14:28:04;2.80;;;1.35;;
33138;SDS011;19501;50.948;5.316;2023-11-18T14:30:33;3.70;;;1.42;;
33138;SDS011;19501;50.948;5.316;2023-11-18T14:32:59;2.03;;;1.35;;
33138;SDS011;19501;50.948;5.316;2023-11-18T14:35:25;0.40;;;0.40;;
33138;SDS011;19501;50.948;5.316;2023-11-18T14:37:51;0.40;;;0.40;;
33138;SDS011;19501;50.948;5.316;2023-11-18T14:40:17;0.40;;;0.40;;
33138;SDS011;19501;50.948;5.316;2023-11-18T14:42:44;0.40;;;0.40;;
33138;SDS011;19501;50.948;5.316;2023-11-18T14:45:12;0.40;;;0.40;;
33138;SDS011;19501;50.948;5.316;2023-11-18T14:47:42;0.40;;;0.40;;
33138;SDS011;19501;50.948;5.316;2023-11-18T14:50:12;0.40;;;0.40;;
33138;SDS011;19501;50.948;5.316;2023-11-18T14:52:48;0.40;;;0.40;;
33138;SDS011;19501;50.948;5.316;2023-11-18T14:55:17;0.40;;;0.40;;
33138;SDS011;19501;50.948;5.316;2023-11-18T14:57:43;0.40;;;0.40;;
33138;SDS011;19501;50.948;5.316;2023-11-18T15:00:10;0.40;;;0.40;;
33138;SDS011;19501;50.948;5.316;2023-11-18T15:02:47;0.40;;;0.40;;
33138;SDS011;19501;50.948;5.316;2023-11-18T15:05:16;0.43;;;0.43;;
33138;SDS011;19501;50.948;5.316;2023-11-18T15:07:46;0.40;;;0.40;;
33138;SDS011;19501;50.948;5.316;2023-11-18T15:10:23;0.40;;;0.40;;